Terminal Aerodrome Forecast
Issued by NWS

Home | Current Version | Previous Version | Text Only | Print | Product List | Glossary On
Versions: 1 2 3 4 5 6 7 8 9 10 11 12 13
000
FTUS42 KTBW 222300
TAFLAL
TAF
KLAL 222331Z 2300/2324 23005KT P6SM VCTS FEW020 SCT060CB BKN250
     FM230200 VRB03KT P6SM FEW030 BKN250
     FM231500 33005KT P6SM FEW030 SCT250
     FM231800 01007KT P6SM VCTS SCT040CB BKN100 BKN250
      AMD NOT SKED 2303/2312=

USA.gov is the U.S. government's official web portal to all federal, state and local government web resources and services.